createdAt,value
2019-04-05T00:00:55.070Z,4.00
2019-04-05T00:03:24.429Z,4.00
2019-04-05T00:05:53.531Z,4.00
2019-04-05T00:08:22.571Z,4.00
2019-04-05T00:10:51.689Z,4.00
2019-04-05T00:13:20.768Z,4.00
2019-04-05T00:15:49.857Z,3.90
2019-04-05T00:18:18.924Z,3.90
2019-04-05T00:20:48.023Z,3.90
2019-04-05T00:23:17.107Z,3.90
2019-04-05T00:25:46.249Z,3.80
2019-04-05T00:28:15.307Z,3.80
2019-04-05T00:30:44.365Z,3.80
2019-04-05T00:33:13.483Z,3.80
2019-04-05T00:35:42.587Z,3.80
2019-04-05T00:38:11.668Z,3.80
2019-04-05T00:40:40.675Z,3.80
2019-04-05T00:43:09.745Z,3.70
2019-04-05T00:45:38.835Z,3.70
2019-04-05T00:48:07.910Z,3.70
2019-04-05T00:50:37.008Z,3.70
2019-04-05T00:53:06.168Z,3.70
2019-04-05T00:55:35.282Z,3.60
2019-04-05T00:58:04.439Z,3.60
2019-04-05T01:00:33.568Z,3.60
2019-04-05T01:03:02.658Z,3.60
2019-04-05T01:05:31.829Z,3.60
2019-04-05T01:08:00.935Z,3.60
2019-04-05T01:10:30.041Z,3.50
2019-04-05T01:12:59.494Z,3.50
2019-04-05T01:15:40.183Z,3.50
2019-04-05T01:17:59.774Z,3.40
2019-04-05T01:20:32.695Z,3.40
2019-04-05T01:23:02.161Z,3.40
2019-04-05T01:25:31.606Z,3.40
2019-04-05T01:28:01.179Z,3.40
2019-04-05T01:30:30.283Z,3.40
2019-04-05T01:32:59.361Z,3.40
2019-04-05T01:35:28.498Z,3.30
2019-04-05T01:37:57.962Z,3.30
2019-04-05T01:40:29.430Z,3.30
2019-04-05T01:42:58.846Z,3.30
2019-04-05T01:45:27.972Z,3.30
2019-04-05T01:47:57.158Z,3.30
2019-04-05T01:50:26.348Z,3.30
2019-04-05T01:52:55.476Z,3.30
2019-04-05T01:55:24.570Z,3.30
2019-04-05T01:57:53.690Z,3.20
2019-04-05T02:00:22.783Z,3.20
2019-04-05T02:02:51.876Z,3.20
2019-04-05T02:05:21.059Z,3.20
2019-04-05T02:07:50.102Z,3.20
2019-04-05T02:10:19.305Z,3.20
2019-04-05T02:12:48.399Z,3.20
2019-04-05T02:15:30.148Z,3.10
2019-04-05T02:17:59.602Z,3.10
2019-04-05T02:20:28.823Z,3.10
2019-04-05T02:22:57.991Z,3.10
2019-04-05T02:25:27.385Z,3.10
2019-04-05T02:27:56.459Z,3.10
2019-04-05T02:30:25.674Z,3.10
2019-04-05T02:32:54.767Z,3.10
2019-04-05T02:35:23.956Z,3.10
2019-04-05T02:37:53.137Z,3.10
2019-04-05T02:40:24.496Z,3.10
2019-04-05T02:42:56.025Z,3.10
2019-04-05T02:45:26.221Z,3.10
2019-04-05T02:47:58.972Z,3.10
2019-04-05T02:50:30.887Z,3.10
2019-04-05T02:53:02.968Z,3.10
2019-04-05T02:55:32.790Z,3.10
2019-04-05T02:58:03.524Z,3.10
2019-04-05T03:00:33.999Z,3.10
2019-04-05T03:03:04.719Z,3.10
2019-04-05T03:05:34.092Z,3.10
2019-04-05T03:08:03.792Z,3.10
2019-04-05T03:11:13.153Z,3.10
2019-04-05T03:13:52.300Z,3.10
2019-04-05T03:16:40.370Z,3.10
2019-04-05T03:19:03.869Z,3.10
2019-04-05T03:21:35.463Z,3.10
2019-04-05T03:24:05.937Z,3.10
2019-04-05T03:26:38.612Z,3.10
2019-04-05T03:29:09.783Z,3.10
2019-04-05T03:31:39.617Z,3.10
2019-04-05T03:34:08.926Z,3.10
2019-04-05T03:36:39.473Z,3.20
2019-04-05T03:39:10.532Z,3.10
2019-04-05T03:41:40.187Z,3.20
2019-04-05T03:44:10.315Z,3.10
2019-04-05T03:46:54.847Z,3.10
2019-04-05T03:49:10.681Z,3.10
2019-04-05T03:51:40.067Z,3.20
2019-04-05T03:54:09.128Z,3.10
2019-04-05T03:56:38.595Z,3.10
2019-04-05T03:59:07.890Z,3.10
2019-04-05T04:01:37.256Z,3.20
2019-04-05T04:04:06.463Z,3.10
2019-04-05T04:06:35.852Z,3.20
2019-04-05T04:09:06.445Z,3.20
2019-04-05T04:11:35.993Z,3.20
2019-04-05T04:14:05.461Z,3.20
2019-04-05T04:16:34.545Z,3.20
2019-04-05T04:19:04.034Z,3.20
2019-04-05T04:21:42.133Z,3.20
2019-04-05T04:24:11.356Z,3.20
2019-04-05T04:26:41.511Z,3.20
2019-04-05T04:29:10.924Z,3.20
2019-04-05T04:31:40.023Z,3.20
2019-04-05T04:34:09.103Z,3.30
2019-04-05T04:36:38.404Z,3.30
2019-04-05T04:39:07.600Z,3.30
2019-04-05T04:41:36.941Z,3.30
2019-04-05T04:44:06.116Z,3.30
2019-04-05T04:46:35.394Z,3.40
2019-04-05T04:49:04.902Z,3.40
2019-04-05T04:51:34.129Z,3.40
2019-04-05T04:54:03.719Z,3.40
2019-04-05T04:56:33.144Z,3.40
2019-04-05T04:59:02.237Z,3.40
2019-04-05T05:01:31.408Z,3.40
2019-04-05T05:04:00.577Z,3.50
2019-04-05T05:06:29.707Z,3.50
2019-04-05T05:08:59.574Z,3.50
2019-04-05T05:11:28.962Z,3.50
2019-04-05T05:13:58.175Z,3.50
2019-04-05T05:16:27.277Z,3.50
2019-04-05T05:18:56.835Z,3.50
2019-04-05T05:21:26.531Z,3.50
2019-04-05T05:23:55.743Z,3.60
2019-04-05T05:26:24.910Z,3.60
2019-04-05T05:28:54.115Z,3.60
2019-04-05T05:31:23.615Z,3.60
2019-04-05T05:33:52.693Z,3.60
2019-04-05T05:36:21.773Z,3.70
2019-04-05T05:38:51.277Z,3.70
2019-04-05T05:41:20.357Z,3.70
2019-04-05T05:43:49.447Z,3.70
2019-04-05T05:46:18.533Z,3.70
2019-04-05T05:48:47.689Z,3.80
2019-04-05T05:51:16.768Z,3.80
2019-04-05T05:53:46.163Z,3.80
2019-04-05T05:56:15.267Z,3.80
2019-04-05T05:58:44.427Z,3.80
2019-04-05T06:01:13.487Z,3.90
2019-04-05T06:03:42.598Z,3.90
2019-04-05T06:06:11.689Z,3.90
2019-04-05T06:08:40.800Z,3.90
2019-04-05T06:11:09.879Z,4.00
2019-04-05T06:16:14.192Z,4.00
2019-04-05T06:18:43.289Z,4.00
2019-04-05T06:21:12.378Z,4.00
2019-04-05T06:23:42.186Z,4.10
2019-04-05T06:26:11.254Z,4.10
2019-04-05T06:28:40.443Z,4.10
2019-04-05T06:31:09.628Z,4.10
2019-04-05T06:33:38.724Z,4.20
2019-04-05T06:36:07.802Z,4.20
2019-04-05T06:38:36.892Z,4.20
2019-04-05T06:41:05.988Z,4.30
2019-04-05T06:43:35.100Z,4.30
2019-04-05T06:46:04.207Z,4.30
2019-04-05T06:48:33.434Z,4.40
2019-04-05T06:51:02.483Z,4.40
2019-04-05T06:53:31.582Z,4.50
2019-04-05T06:56:00.708Z,4.50
2019-04-05T06:58:29.855Z,4.50
2019-04-05T07:00:58.973Z,4.60
2019-04-05T07:03:28.175Z,4.60
2019-04-05T07:05:57.255Z,4.70
2019-04-05T07:08:26.393Z,4.70
2019-04-05T07:10:55.478Z,4.70
2019-04-05T07:13:27.308Z,4.80
2019-04-05T07:15:55.407Z,4.80
2019-04-05T07:18:34.025Z,4.90
2019-04-05T07:20:57.862Z,4.90
2019-04-05T07:23:26.403Z,5.00
2019-04-05T07:25:55.487Z,5.00
2019-04-05T07:28:25.263Z,5.10
2019-04-05T07:30:54.427Z,5.10
2019-04-05T07:33:23.543Z,5.20
2019-04-05T07:35:52.665Z,5.20
2019-04-05T07:38:21.795Z,5.30
2019-04-05T07:40:50.886Z,5.30
2019-04-05T07:43:20.009Z,5.30
2019-04-05T07:45:49.153Z,5.30
2019-04-05T07:48:18.236Z,5.40
2019-04-05T07:50:47.340Z,5.40
2019-04-05T07:53:16.452Z,5.50
2019-04-05T07:55:45.565Z,5.60
2019-04-05T07:58:14.629Z,5.60
2019-04-05T08:00:51.103Z,5.60
2019-04-05T08:03:20.974Z,5.70
2019-04-05T08:05:51.351Z,5.70
2019-04-05T08:09:03.399Z,5.80
2019-04-05T08:11:32.459Z,5.80
2019-04-05T08:14:02.386Z,5.90
2019-04-05T08:16:31.460Z,6.00
2019-04-05T08:19:00.557Z,6.00
2019-04-05T08:21:29.642Z,6.10
2019-04-05T08:23:58.756Z,6.10
2019-04-05T08:26:27.828Z,6.10
2019-04-05T08:28:56.971Z,6.20
2019-04-05T08:31:26.056Z,6.20
2019-04-05T08:33:55.130Z,6.30
2019-04-05T08:36:24.216Z,6.30
2019-04-05T08:38:59.875Z,6.30
2019-04-05T08:41:28.940Z,6.40
2019-04-05T08:43:58.064Z,6.50
2019-04-05T08:46:27.166Z,6.50
2019-04-05T08:48:56.248Z,6.60
2019-04-05T08:51:25.384Z,6.60
2019-04-05T08:53:54.482Z,6.70
2019-04-05T08:56:23.603Z,6.70
2019-04-05T08:58:52.693Z,6.80
2019-04-05T09:01:21.797Z,6.80
2019-04-05T09:03:50.868Z,6.90
2019-04-05T09:06:20.040Z,6.90
2019-04-05T09:08:49.124Z,7.00
2019-04-05T09:11:18.230Z,7.00
2019-04-05T09:13:47.342Z,7.00
2019-04-05T09:16:16.446Z,7.10
2019-04-05T09:18:45.523Z,7.20
2019-04-05T09:21:17.677Z,7.20
2019-04-05T09:23:45.500Z,7.30
2019-04-05T09:26:14.662Z,7.40
2019-04-05T09:28:43.910Z,7.40
2019-04-05T09:31:13.030Z,7.50
2019-04-05T09:33:42.031Z,7.60
2019-04-05T09:36:11.170Z,7.70
2019-04-05T09:38:40.247Z,7.70
2019-04-05T09:41:09.446Z,7.80
2019-04-05T09:43:38.519Z,7.80
2019-04-05T09:46:07.701Z,7.90
2019-04-05T09:48:36.817Z,8.00
2019-04-05T09:51:07.273Z,8.00
2019-04-05T09:53:36.609Z,8.10
2019-04-05T09:56:05.743Z,8.10
2019-04-05T09:58:34.836Z,8.20
2019-04-05T10:01:04.133Z,8.20
2019-04-05T10:03:33.223Z,8.30
2019-04-05T10:06:02.436Z,8.40
2019-04-05T10:08:31.534Z,8.40
2019-04-05T10:11:00.855Z,8.50
2019-04-05T10:13:29.951Z,8.60
2019-04-05T10:15:59.085Z,8.60
2019-04-05T10:18:28.196Z,8.70
2019-04-05T10:20:57.333Z,8.70
2019-04-05T10:23:26.493Z,8.80
2019-04-05T10:25:55.603Z,8.90
2019-04-05T10:28:24.647Z,8.90
2019-04-05T10:30:53.861Z,9.00
2019-04-05T10:33:22.949Z,9.10
2019-04-05T10:35:52.060Z,9.20
2019-04-05T10:38:21.077Z,9.30
2019-04-05T10:40:50.186Z,9.30
2019-04-05T10:43:19.271Z,9.40
2019-04-05T10:45:48.675Z,9.40
2019-04-05T10:48:17.813Z,9.50
2019-04-05T10:50:46.938Z,9.50
2019-04-05T10:53:16.091Z,9.50
2019-04-05T10:55:45.225Z,9.50
2019-04-05T10:58:14.286Z,9.60
2019-04-05T11:00:43.494Z,9.60
2019-04-05T11:03:12.628Z,9.50
2019-04-05T11:05:41.769Z,9.50
2019-04-05T11:08:10.874Z,9.50
2019-04-05T11:10:40.051Z,9.50
2019-04-05T11:13:09.167Z,9.50
2019-04-05T11:15:38.299Z,9.50
2019-04-05T11:18:07.302Z,9.40
2019-04-05T11:20:36.430Z,9.40
2019-04-05T11:23:05.570Z,9.40
2019-04-05T11:25:35.238Z,9.40
2019-04-05T11:28:04.368Z,9.40
2019-04-05T11:30:41.986Z,9.40
2019-04-05T11:33:11.266Z,9.40
2019-04-05T11:35:40.470Z,9.40
2019-04-05T11:38:11.222Z,9.40
2019-04-05T11:40:40.746Z,9.50
2019-04-05T11:43:09.830Z,9.40
2019-04-05T11:45:38.920Z,9.50
2019-04-05T11:48:08.450Z,9.50
2019-04-05T11:50:37.504Z,9.50
2019-04-05T11:53:06.715Z,9.50
2019-04-05T11:55:36.148Z,9.50
2019-04-05T11:58:05.306Z,9.50
2019-04-05T12:00:46.355Z,9.60
2019-04-05T12:03:15.512Z,9.60
2019-04-05T12:05:44.635Z,9.60
2019-04-05T12:08:13.784Z,9.60
2019-04-05T12:10:42.862Z,9.60
2019-04-05T12:13:11.976Z,9.60
2019-04-05T12:15:41.079Z,9.60
2019-04-05T12:18:10.234Z,9.60
2019-04-05T12:20:49.080Z,9.60
2019-04-05T12:23:10.159Z,9.60
2019-04-05T12:25:39.243Z,9.60
2019-04-05T12:28:10.586Z,9.60
2019-04-05T12:30:40.101Z,9.60
2019-04-05T12:33:14.372Z,9.70
2019-04-05T12:35:40.075Z,9.70
2019-04-05T12:38:09.219Z,9.80
2019-04-05T12:40:38.458Z,9.80
2019-04-05T12:43:13.071Z,9.80
2019-04-05T12:45:39.925Z,9.90
2019-04-05T12:48:09.025Z,9.90
2019-04-05T12:50:38.129Z,10.00
2019-04-05T12:53:08.433Z,10.00
2019-04-05T12:55:37.533Z,10.00
2019-04-05T12:58:06.641Z,10.10
2019-04-05T13:00:38.742Z,10.10
2019-04-05T13:03:06.737Z,10.10
2019-04-05T13:05:35.891Z,10.10
2019-04-05T13:08:05.007Z,10.10
2019-04-05T13:10:34.147Z,10.10
2019-04-05T13:13:03.341Z,10.10
2019-04-05T13:15:32.505Z,10.00
2019-04-05T13:18:01.600Z,10.00
2019-04-05T13:20:30.851Z,10.00
2019-04-05T13:23:02.512Z,10.00
2019-04-05T13:25:30.963Z,9.90
2019-04-05T13:28:12.536Z,10.00
2019-04-05T13:30:31.007Z,10.00
2019-04-05T13:33:00.117Z,9.90
2019-04-05T13:35:29.198Z,9.90
2019-04-05T13:37:58.500Z,9.90
2019-04-05T13:40:29.570Z,9.90
2019-04-05T13:43:01.403Z,9.90
2019-04-05T13:45:30.162Z,9.90
2019-04-05T13:47:59.286Z,10.00
2019-04-05T13:50:28.388Z,10.00
2019-04-05T13:52:57.493Z,9.90
2019-04-05T13:55:26.632Z,10.00
2019-04-05T13:57:55.791Z,10.00
2019-04-05T14:00:24.972Z,10.00
2019-04-05T14:02:54.121Z,10.00
2019-04-05T14:05:23.357Z,10.00
2019-04-05T14:07:54.672Z,10.10
2019-04-05T14:10:23.382Z,10.10
2019-04-05T14:12:52.512Z,10.10
2019-04-05T14:15:21.664Z,10.20
2019-04-05T14:17:50.748Z,10.10
2019-04-05T14:20:20.168Z,10.20
2019-04-05T14:22:51.546Z,10.10
2019-04-05T14:25:20.157Z,10.20
2019-04-05T14:27:49.239Z,10.10
2019-04-05T14:30:18.372Z,10.10
2019-04-05T14:32:50.579Z,10.10
2019-04-05T14:35:18.310Z,10.10
2019-04-05T14:37:47.328Z,10.00
2019-04-05T14:40:16.798Z,10.00
2019-04-05T14:42:45.921Z,10.00
2019-04-05T14:45:15.405Z,9.90
2019-04-05T14:47:44.505Z,9.90
2019-04-05T14:50:15.888Z,9.90
2019-04-05T14:52:44.690Z,9.80
2019-04-05T14:55:13.915Z,9.80
2019-04-05T14:57:43.003Z,9.80
2019-04-05T15:00:15.181Z,9.80
2019-04-05T15:02:43.960Z,9.70
2019-04-05T15:05:13.359Z,9.70
2019-04-05T15:07:42.437Z,9.70
2019-04-05T15:10:11.623Z,9.70
2019-04-05T15:12:40.751Z,9.60
2019-04-05T15:15:10.054Z,9.60
2019-04-05T15:17:47.667Z,9.60
2019-04-05T15:20:10.283Z,9.60
2019-04-05T15:22:41.511Z,9.60
2019-04-05T15:25:10.613Z,9.50
2019-04-05T15:27:39.704Z,9.50
2019-04-05T15:30:09.796Z,9.50
2019-04-05T15:32:38.865Z,9.50
2019-04-05T15:35:08.578Z,9.50
2019-04-05T15:37:38.018Z,9.50
2019-04-05T15:40:09.077Z,9.50
2019-04-05T15:42:38.159Z,9.50
2019-04-05T15:45:09.278Z,9.40
2019-04-05T15:47:38.388Z,9.40
2019-04-05T15:50:08.146Z,9.40
2019-04-05T15:52:37.249Z,9.40
2019-04-05T15:55:06.931Z,9.40
2019-04-05T15:57:39.207Z,9.40
2019-04-05T16:00:09.180Z,9.30
2019-04-05T16:02:38.243Z,9.30
2019-04-05T16:05:08.087Z,9.30
2019-04-05T16:07:37.211Z,9.30
2019-04-05T16:10:07.042Z,9.20
2019-04-05T16:12:36.124Z,9.20
2019-04-05T16:15:06.473Z,9.20
2019-04-05T16:17:35.548Z,9.20
2019-04-05T16:20:04.896Z,9.10
2019-04-05T16:22:35.883Z,9.10
2019-04-05T16:25:05.503Z,9.10
2019-04-05T16:27:34.684Z,9.10
2019-04-05T16:30:04.012Z,9.10
2019-04-05T16:32:33.120Z,9.10
2019-04-05T16:35:02.224Z,9.00
2019-04-05T16:37:31.464Z,9.00
2019-04-05T16:40:00.604Z,9.00
2019-04-05T16:42:29.794Z,9.00
2019-04-05T16:44:58.871Z,9.00
2019-04-05T16:47:28.004Z,9.00
2019-04-05T16:49:57.076Z,9.00
2019-04-05T16:52:26.224Z,8.90
2019-04-05T16:54:55.324Z,8.90
2019-04-05T16:57:24.439Z,8.90
2019-04-05T16:59:53.575Z,8.90
2019-04-05T17:02:22.711Z,8.90
2019-04-05T17:04:51.983Z,8.80
2019-04-05T17:07:21.010Z,8.80
2019-04-05T17:09:50.100Z,8.80
2019-04-05T17:12:19.209Z,8.80
2019-04-05T17:14:48.316Z,8.80
2019-04-05T17:17:17.449Z,8.80
2019-04-05T17:19:46.529Z,8.70
2019-04-05T17:22:15.647Z,8.70
2019-04-05T17:24:44.749Z,8.70
2019-04-05T17:27:13.861Z,8.70
2019-04-05T17:29:43.228Z,8.70
2019-04-05T17:32:12.390Z,8.70
2019-04-05T17:34:41.402Z,8.60
2019-04-05T17:37:10.336Z,8.60
2019-04-05T17:39:39.426Z,8.60
2019-04-05T17:42:08.565Z,8.50
2019-04-05T17:44:37.643Z,8.50
2019-04-05T17:47:06.785Z,8.50
2019-04-05T17:49:35.882Z,8.50
2019-04-05T17:52:05.009Z,8.50
2019-04-05T17:54:34.086Z,8.50
2019-04-05T17:57:03.434Z,8.40
2019-04-05T17:59:32.832Z,8.50
2019-04-05T18:02:02.025Z,8.40
2019-04-05T18:04:31.140Z,8.40
2019-04-05T18:07:00.327Z,8.40
2019-04-05T18:09:29.453Z,8.40
2019-04-05T18:11:58.594Z,8.40
2019-04-05T18:14:27.891Z,8.40
2019-04-05T18:16:57.083Z,8.40
2019-04-05T18:19:26.381Z,8.30
2019-04-05T18:21:55.581Z,8.30
2019-04-05T18:24:24.730Z,8.30
2019-04-05T18:26:53.863Z,8.30
2019-04-05T18:29:23.030Z,8.30
2019-04-05T18:31:52.173Z,8.30
2019-04-05T18:34:21.365Z,8.20
2019-04-05T18:36:50.522Z,8.20
2019-04-05T18:39:19.641Z,8.20
2019-04-05T18:41:48.819Z,8.20
2019-04-05T18:44:18.035Z,8.20
2019-04-05T18:46:47.453Z,8.20
2019-04-05T18:49:16.617Z,8.10
2019-04-05T18:51:45.675Z,8.10
2019-04-05T18:54:14.849Z,8.10
2019-04-05T18:56:44.002Z,8.10
2019-04-05T18:59:13.095Z,8.10
2019-04-05T19:01:42.225Z,8.10
2019-04-05T19:04:11.309Z,8.10
2019-04-05T19:06:40.412Z,8.10
2019-04-05T19:09:11.827Z,8.10
2019-04-05T19:11:40.738Z,8.10
2019-04-05T19:14:09.839Z,8.00
2019-04-05T19:16:38.988Z,8.00
2019-04-05T19:19:08.095Z,8.00
2019-04-05T19:21:37.223Z,8.00
2019-04-05T19:24:06.353Z,8.00
2019-04-05T19:26:35.480Z,8.00
2019-04-05T19:29:05.274Z,7.90
2019-04-05T19:49:11.203Z,7.90
2019-04-05T19:51:40.322Z,7.90
2019-04-05T19:54:09.483Z,7.90
2019-04-05T19:56:38.601Z,7.80
2019-04-05T19:59:07.699Z,7.80
2019-04-05T20:01:36.784Z,7.80
2019-04-05T20:04:06.087Z,7.80
2019-04-05T20:06:35.168Z,7.80
2019-04-05T20:09:06.257Z,7.80
2019-04-05T20:11:35.371Z,7.80
2019-04-05T20:14:04.610Z,7.80
2019-04-05T20:16:33.769Z,7.80
2019-04-05T20:19:02.832Z,7.80
2019-04-05T20:21:31.931Z,7.80
2019-04-05T20:24:09.453Z,7.80
2019-04-05T20:26:32.031Z,7.80
2019-04-05T20:29:01.141Z,7.80
2019-04-05T20:31:30.266Z,7.80
2019-04-05T20:33:59.429Z,7.80
2019-04-05T20:36:28.533Z,7.80
2019-04-05T20:38:57.641Z,7.80
2019-04-05T20:41:28.528Z,7.80
2019-04-05T20:43:57.666Z,7.80
2019-04-05T20:46:26.790Z,7.70
2019-04-05T20:48:56.006Z,7.80
2019-04-05T20:51:25.111Z,7.70
2019-04-05T20:53:54.249Z,7.70
2019-04-05T20:56:23.351Z,7.70
2019-04-05T20:58:52.497Z,7.70
2019-04-05T21:01:21.604Z,7.70
2019-04-05T21:03:50.716Z,7.70
2019-04-05T21:06:19.806Z,7.70
2019-04-05T21:08:48.923Z,7.70
2019-04-05T21:11:18.027Z,7.70
2019-04-05T21:13:47.201Z,7.70
2019-04-05T21:16:16.279Z,7.70
2019-04-05T21:18:45.338Z,7.70
2019-04-05T21:21:14.457Z,7.70
2019-04-05T21:23:43.553Z,7.70
2019-04-05T21:26:12.658Z,7.70
2019-04-05T21:28:41.767Z,7.70
2019-04-05T21:31:10.932Z,7.70
2019-04-05T21:33:40.059Z,7.70
2019-04-05T21:36:09.130Z,7.70
2019-04-05T21:38:38.224Z,7.70
2019-04-05T21:41:07.310Z,7.70
2019-04-05T21:43:36.412Z,7.60
2019-04-05T21:46:05.509Z,7.70
2019-04-05T21:48:34.582Z,7.70
2019-04-05T21:51:03.700Z,7.60
2019-04-05T21:53:32.868Z,7.60
2019-04-05T21:56:01.966Z,7.60
2019-04-05T21:58:31.076Z,7.60
2019-04-05T22:01:03.489Z,7.60
2019-04-05T22:03:32.594Z,7.60
2019-04-05T22:06:01.703Z,7.60
2019-04-05T22:08:30.816Z,7.60
2019-04-05T22:10:59.911Z,7.60
2019-04-05T22:13:29.017Z,7.50
2019-04-05T22:15:58.167Z,7.50
2019-04-05T22:18:27.266Z,7.50
2019-04-05T22:20:56.402Z,7.50
2019-04-05T22:23:25.541Z,7.50
2019-04-05T22:25:54.648Z,7.50
2019-04-05T22:28:23.755Z,7.50
2019-04-05T22:30:52.916Z,7.50
2019-04-05T22:33:22.031Z,7.50
2019-04-05T22:35:51.081Z,7.50
2019-04-05T22:38:20.159Z,7.50
2019-04-05T22:40:49.291Z,7.50
2019-04-05T22:43:18.473Z,7.50
2019-04-05T22:45:47.600Z,7.50
2019-04-05T22:48:16.678Z,7.50
2019-04-05T22:50:45.791Z,7.50
2019-04-05T22:53:14.856Z,7.50
2019-04-05T22:55:44.581Z,7.50
2019-04-05T22:58:13.745Z,7.50
2019-04-05T23:00:43.070Z,7.50
2019-04-05T23:03:12.120Z,7.50
2019-04-05T23:05:41.228Z,7.40
2019-04-05T23:08:10.335Z,7.50
2019-04-05T23:10:39.497Z,7.50
2019-04-05T23:13:08.720Z,7.40
2019-04-05T23:15:37.866Z,7.40
2019-04-05T23:18:07.034Z,7.40
2019-04-05T23:20:37.736Z,7.40
2019-04-05T23:23:06.833Z,7.40
2019-04-05T23:25:35.976Z,7.40
2019-04-05T23:28:05.081Z,7.40
2019-04-05T23:30:34.250Z,7.30
2019-04-05T23:33:03.342Z,7.30
2019-04-05T23:35:33.528Z,7.30
2019-04-05T23:38:02.609Z,7.20
2019-04-05T23:40:31.709Z,7.20
2019-04-05T23:43:00.765Z,7.10
2019-04-05T23:45:29.958Z,7.10
2019-04-05T23:47:59.050Z,7.00
2019-04-05T23:50:28.299Z,7.00
2019-04-05T23:52:57.369Z,6.90
2019-04-05T23:55:33.234Z,6.90
2019-04-05T23:57:59.530Z,6.90
